Artemas, Pennsylvania
Current Conditions -  °F | °C
As of 9:51 AM on Wednesday 22 Oct 2014 (Local Time) from KCBE Reporting Station
Overcast Overcast  
Wind Chill: 54°   Ceiling: 3500
Heat Index: 54°   Visibility: 10mi
Dew Point: 45°   Wind: 16mph
Humidity: 72%   Direction: 340°NNW
Pressure: 30.09"   Gusts: 22mph
Location:  39.75°N, 78.44°W
Report Text: KCBE 221351Z AUTO 34014G19KT 10SM OVC035 12/07 A3009 RMK AO1
Loading
Personal Weather Stations






























Interactive Weather Map
Tropical Storm Tracking
New forecast layout! Learn more

10-Day Weather Forecast

Advertisements
Track Severe Weather on mobile